Latest Coastal Weather Observations for Devonport Airport

IDT60701

Issued at 4:52 am EST Thursday 29 September 2016 (issued every 10 minutes, with the page automatically refreshed every 10 minutes)

About coastal observations | Map of coastal stations | Coastal observations for TAS | Marine services | Other Formats
Station Details ID: 091126 Name: DEVONPORT AIRPORT Lat: -41.17 Lon: 146.43 Height: 8.0 m
Data from the previous 72 hours. | See also: Recent months at Devonport Airport
Date/Time
EST
Temp
°C
Wind Pressure Rain since
9am
mm
Weather Cloud Vis
km
Sea
Height
m
Swell
Dir  Spd
kts
Gust
kts
hPa Trend Height
m
Period
s
Dir
29/04:30am 13.8 E 19 27 996.7 - 0.0 - Partly cloudy 10 - - - -
29/04:00am 13.7 E 22 33 996.9 - 0.0 - Partly cloudy 10 - - - -
29/03:37am 13.7 E 19 31 997.7 - 0.0 - Partly cloudy 10 - - - -
29/03:30am 13.5 E 19 26 997.9 - 0.0 - Partly cloudy 10 - - - -
29/03:00am 13.2 E 16 25 998.6 - 0.0 - Cloudy 10 - - - -
29/02:53am 13.2 E 15 25 998.8 - 0.0 - Partly cloudy 10 - - - -
29/02:30am 12.8 ESE 14 20 999.1 - 0.0 - Partly cloudy 10 - - - -
29/02:00am 12.6 ESE 14 19 999.9 - 0.0 - Partly cloudy 10 - - - -
29/01:30am 12.5 ESE 13 19 1000.9 - 0.0 - Cloudy 10 - - - -
29/01:00am 11.8 ESE 10 15 1002.1 - 0.0 - Partly cloudy 10 - - - -
29/12:30am 10.5 SE 9 13 1002.6 - 0.0 - Partly cloudy 10 - - - -
29/12:00am 10.3 SSE 9 11 1003.1 - 0.0 - Cloudy 10 - - - -
 
Date/Time
EST
Temp
°C
Wind Pressure Rain since
9am
mm
Weather Cloud Vis
km
Sea
Height
m
Swell
Dir  Spd
kts
Gust
kts
hPa Trend Height
m
Period
s
Dir
28/11:30pm 10.0 SSE 10 13 1003.3 - 0.0 - - 10 - - - -
28/11:00pm 10.0 SSE 9 11 1003.9 - 0.0 - - 10 - - - -
28/10:30pm 9.9 SSE 9 11 1004.3 - 0.0 - - 10 - - - -
28/10:00pm 9.8 SSE 10 12 1004.6 - 0.0 - - 10 - - - -
28/09:30pm 10.3 SE 8 10 1004.9 - 0.0 - - 10 - - - -
28/09:00pm 11.0 ESE 8 11 1005.3 - 0.0 - Cloudy 10 - - - -
28/08:30pm 11.1 ESE 8 9 1005.7 - 0.0 - Partly cloudy 10 - - - -
28/08:00pm 11.0 ESE 7 8 1006.1 - 0.0 - Partly cloudy 10 - - - -
28/07:30pm 10.7 E 6 7 1006.2 - 0.0 - Partly cloudy 10 - - - -
28/07:00pm 11.9 NE 9 12 1006.2 - 0.0 - Partly cloudy 10 - - - -
28/06:47pm 11.4 ENE 6 10 1006.2 - 0.0 - Partly cloudy 10 - - - -
28/06:30pm 11.8 NE 8 9 1006.0 - 0.0 - Partly cloudy 10 - - - -
28/06:08pm 11.6 ENE 7 9 1005.8 - 0.0 - Partly cloudy 10 - - - -
28/06:00pm 11.8 NE 7 9 1005.7 - 0.0 - Mostly clear 10 - - - -
28/05:36pm 12.1 NNE 6 7 1005.8 - 0.0 - Partly cloudy 10 - - - -
28/05:30pm 12.2 NNE 6 8 1005.7 - 0.0 - Partly cloudy 10 - - - -
28/05:17pm 12.4 NE 7 9 1005.6 - 0.0 - Partly cloudy 10 - - - -
28/05:00pm 12.7 NNE 6 7 1005.8 - 0.0 - Partly cloudy 10 - - - -
28/04:30pm 13.0 NNE 9 11 1006.3 - 0.0 - - 10 - - - -
28/04:00pm 12.9 N 8 11 1005.9 - 0.0 - - 10 - - - -
28/03:30pm 12.9 NNE 6 9 1005.6 - 0.0 - - 10 - - - -
28/03:00pm 13.3 N 7 8 1006.3 - 0.0 - - 10 - - - -
28/02:30pm 13.5 NNW 7 11 1007.1 - 0.0 - - 10 - - - -
28/02:00pm 13.3 N 8 11 1007.8 - 0.0 - - 10 - - - -
28/01:30pm 13.5 N 9 11 1008.2 - 0.0 - - 10 - - - -
28/01:00pm 13.1 NNW 8 11 1008.5 - 0.0 - - 10 - - - -
28/12:30pm 13.8 N 9 11 1008.9 - 0.0 - - 10 - - - -
28/12:00pm 13.7 N 7 9 1009.3 - 0.0 - - 10 - - - -
28/11:30am 13.5 NNW 6 8 1009.6 - 0.0 - - 10 - - - -
28/11:00am 12.9 NNW 7 8 1010.0 - 0.0 - Partly cloudy 10 - - - -
28/10:30am 13.4 N 6 8 1010.2 - 0.0 - - 10 - - - -
28/10:00am 13.4 N 5 7 1010.3 - 0.0 - Cloudy 10 - - - -
28/09:30am 12.3 N 4 6 1010.6 - 0.0 - Cloudy 10 - - - -
28/09:00am 12.8 N 1 4 1010.7 - 0.0 - Cloudy 10 - - - -
28/08:30am 11.7 S 3 4 1010.9 - 0.0 - Partly cloudy 10 - - - -
28/08:00am 10.6 W 2 4 1011.1 - 0.0 - Partly cloudy 10 - - - -
28/07:30am 9.6 SSW 3 4 1011.1 - 0.0 - Partly cloudy 10 - - - -
28/07:00am 8.0 S 5 6 1011.0 - 0.0 - Partly cloudy 10 - - - -
28/06:30am 7.3 S 1 4 1010.7 - 0.0 - - 10 - - - -
28/06:00am 7.5 CALM 0 0 1010.4 - 0.0 - Cloudy 10 - - - -
28/05:30am 7.2 SSW 1 4 1010.2 - 0.0 - Partly cloudy 10 - - - -
28/05:00am 8.0 WSW 3 3 1009.9 - 0.0 - - 10 - - - -
28/04:30am 9.2 W 3 5 1009.9 - 0.0 - - 10 - - - -
28/04:00am 10.3 W 9 12 1009.7 - 0.0 - Partly cloudy 10 - - - -
28/03:30am 10.9 WNW 11 13 1009.6 - 0.0 - Partly cloudy 10 - - - -
28/03:00am 10.8 WNW 10 11 1009.4 - 0.0 - Partly cloudy 10 - - - -
28/02:34am 10.8 NW 7 9 1009.4 - 0.0 - Partly cloudy 10 - - - -
28/02:30am 10.8 NW 7 9 1009.4 - 0.0 - Partly cloudy 10 - - - -
28/02:17am 10.9 NW 7 9 1009.6 - 0.0 - Partly cloudy 10 - - - -
28/02:00am 10.7 NW 6 8 1009.7 - 0.0 - Partly cloudy 10 - - - -
28/01:30am 10.8 WNW 6 8 1010.0 - 0.0 - Partly cloudy 10 - - - -
28/01:00am 10.0 SSW 2 4 1010.3 - 0.0 - Partly cloudy 10 - - - -
28/12:30am 9.8 WSW 3 4 1010.3 - 0.0 - Partly cloudy 10 - - - -
28/12:00am 9.4 WSW 4 6 1010.2 - 0.0 - Cloudy 10 - - - -
 
Date/Time
EST
Temp
°C
Wind Pressure Rain since
9am
mm
Weather Cloud Vis
km
Sea
Height
m
Swell
Dir  Spd
kts
Gust
kts
hPa Trend Height
m
Period
s
Dir
27/11:30pm 8.9 WSW 6 7 1010.3 - 0.0 - Partly cloudy 10 - - - -
27/11:00pm 9.3 SW 5 6 1010.0 - 0.0 - - 10 - - - -
27/10:30pm 9.8 W 11 15 1010.1 - 0.0 - - 10 - - - -
27/10:00pm 9.6 WSW 4 5 1009.8 - 0.0 - - 10 - - - -
27/09:30pm 9.6 W 7 8 1009.7 - 0.0 - - 10 - - - -
27/09:00pm 10.6 WSW 5 7 1009.7 - 0.0 - - 10 - - - -
27/08:30pm 10.7 W 7 9 1009.6 - 0.0 - - 10 - - - -
27/08:00pm 12.1 WNW 11 13 1009.4 - 0.0 - - 10 - - - -
27/07:30pm 12.4 WNW 13 15 1009.3 - 0.0 - - 10 - - - -
27/07:00pm 12.3 WNW 11 13 1009.2 - 0.0 - - 10 - - - -
27/06:30pm 12.2 NW 13 16 1008.9 - 0.0 - - 10 - - - -
27/06:00pm 12.4 NW 14 18 1008.9 - 0.0 - - 10 - - - -
27/05:30pm 12.6 NW 14 17 1008.8 - 0.0 - - 10 - - - -
27/05:00pm 12.8 NW 13 16 1008.7 - 0.0 - - 10 - - - -
27/04:30pm 13.3 NW 13 17 1008.7 - 0.0 - Partly cloudy 10 - - - -
27/04:00pm 13.7 NW 12 15 1008.6 - 0.0 - - 10 - - - -
27/03:30pm 13.8 NW 13 16 1008.5 - 0.0 - - 10 - - - -
27/03:00pm 13.9 NNW 13 16 1008.4 - 0.0 - - 10 - - - -
27/02:30pm 14.0 NNW 12 15 1008.4 - 0.0 - - 10 - - - -
27/02:00pm 13.8 NNW 11 13 1008.6 - 0.0 - - 10 - - - -
27/01:30pm 13.4 N 10 13 1008.7 - 0.0 - - 10 - - - -
27/01:00pm 13.9 N 11 13 1008.7 - 0.0 - - 10 - - - -
27/12:30pm 13.6 N 10 11 1008.7 - 0.0 - - 10 - - - -
27/12:00pm 13.3 N 9 11 1008.9 - 0.0 - - 10 - - - -
27/11:30am 13.0 N 9 11 1009.0 - 0.0 - - 10 - - - -
27/11:00am 12.9 N 9 11 1009.2 - 0.0 - - 10 - - - -
27/10:30am 12.6 N 8 9 1009.3 - 0.0 - - 10 - - - -
27/10:00am 12.6 NNW 7 8 1009.3 - 0.0 - Partly cloudy 10 - - - -
27/09:30am 12.7 N 5 9 1009.3 - 0.0 - Partly cloudy 10 - - - -
27/09:00am 12.2 S 3 6 1009.2 - 0.0 - - 10 - - - -
27/08:30am 11.5 SSE 6 7 1008.9 - 0.0 - - 10 - - - -
27/08:00am 9.9 SSE 8 10 1009.0 - 0.0 - - 10 - - - -
27/07:30am 8.2 SSE 10 12 1008.7 - 0.0 - - 10 - - - -
27/07:00am 7.3 S 8 10 1008.6 - 0.0 - - 10 - - - -
27/06:30am 6.3 S 8 10 1008.4 - 0.0 - - 10 - - - -
27/06:00am 6.1 SSE 9 11 1008.1 - 0.0 - Mostly clear 10 - - - -
27/05:30am 6.5 SSE 9 10 1008.0 - 0.0 - Partly cloudy 10 - - - -
27/05:00am 6.6 SSE 9 10 1007.9 - 0.0 - Partly cloudy 10 - - - -
27/04:30am 6.9 S 9 11 1008.0 - 0.0 - Partly cloudy 10 - - - -
27/04:00am 6.7 S 8 10 1008.0 - 0.0 - Partly cloudy 10 - - - -
27/03:30am 6.6 S 9 11 1007.8 - 0.0 - Partly cloudy 10 - - - -
27/03:00am 6.3 S 6 9 1007.9 - 0.0 - Mostly cloudy 10 - - - -
27/02:58am 6.4 S 6 8 1007.9 - 0.0 - Partly cloudy 10 - - - -
27/02:30am 6.9 S 7 9 1008.1 - 0.0 - Partly cloudy 10 - - - -
27/02:07am 6.5 S 7 9 1008.5 - 0.0 - Partly cloudy 10 - - - -
27/02:00am 6.3 S 6 8 1008.5 - 0.0 - Partly cloudy 10 - - - -
27/01:30am 6.1 S 8 10 1008.6 - 0.0 - - 10 - - - -
27/01:00am 6.4 SSE 9 11 1008.9 - 0.0 - - 10 - - - -
27/12:30am 6.5 S 8 9 1009.2 - 0.0 - Partly cloudy 10 - - - -
27/12:00am 6.4 S 8 10 1009.3 - 0.0 - - 10 - - - -
 
Date/Time
EST
Temp
°C
Wind Pressure Rain since
9am
mm
Weather Cloud Vis
km
Sea
Height
m
Swell
Dir  Spd
kts
Gust
kts
hPa Trend Height
m
Period
s
Dir
26/11:30pm 7.2 SSE 7 9 1009.4 - 0.0 - - 10 - - - -
26/11:00pm 7.1 SSE 7 9 1009.7 - 0.0 - - 10 - - - -
26/10:30pm 7.0 S 7 8 1009.9 - 0.0 - Partly cloudy 10 - - - -
26/10:00pm 7.6 S 6 7 1010.1 - 0.0 - - 10 - - - -
26/09:30pm 8.1 SSE 7 7 1010.2 - 0.0 - - 10 - - - -
26/09:00pm 8.7 SSE 5 6 1010.1 - 0.0 - Mostly clear 10 - - - -
26/08:30pm 9.9 SSE 5 6 1010.1 - 0.0 - Partly cloudy 10 - - - -
26/08:00pm 10.3 S 2 4 1010.1 - 0.0 - Partly cloudy 10 - - - -
26/07:30pm 10.7 NW 4 6 1010.0 - 0.0 - Partly cloudy 10 - - - -
26/07:00pm 10.3 NW 5 6 1009.9 - 0.0 - Partly cloudy 10 - - - -
26/06:30pm 10.7 NW 5 6 1009.7 - 0.0 - Partly cloudy 10 - - - -
26/06:00pm 11.4 NW 7 9 1009.7 - 0.0 - Cloudy 10 - - - -
26/05:30pm 11.6 NW 9 13 1009.7 - 0.0 - Partly cloudy 10 - - - -
26/05:00pm 12.3 NW 10 13 1009.6 - 0.0 - Partly cloudy 10 - - - -
26/04:30pm 12.7 NNW 10 13 1009.4 - 0.0 - Partly cloudy 10 - - - -
26/04:00pm 12.7 NNW 11 13 1009.3 - 0.0 - - 10 - - - -
26/03:30pm 12.9 N 10 12 1009.4 - 0.0 - - 10 - - - -
26/03:00pm 13.4 NNW 12 15 1009.4 - 0.0 - Mostly clear 10 - - - -
26/02:30pm 13.1 NNW 10 13 1009.7 - 0.0 - Partly cloudy 10 - - - -
26/02:00pm 13.0 N 9 11 1009.8 - 0.0 - - 10 - - - -
26/01:30pm 12.5 N 10 12 1010.0 - 0.0 - - 10 - - - -
26/01:00pm 12.6 N 9 11 1010.2 - 0.0 - - 10 - - - -
26/12:30pm 12.3 N 9 11 1010.5 - 0.0 - - 10 - - - -
26/12:00pm 12.7 N 8 11 1010.9 - 0.0 - - 10 - - - -
26/11:30am 12.3 N 7 9 1011.2 - 0.0 - - 10 - - - -
26/11:00am 12.3 N 7 8 1011.4 - 0.0 - - 10 - - - -
26/10:30am 11.5 N 8 9 1011.6 - 0.0 - - 10 - - - -
26/10:00am 11.3 NNE 5 7 1011.7 - 0.0 - - 10 - - - -
26/09:30am 11.3 S 2 5 1012.0 - 0.0 - Partly cloudy 10 - - - -
26/09:00am 10.0 S 4 5 1012.1 - 0.0 - Cloudy 10 - - - -
26/08:30am 9.1 SE 2 4 1012.2 - 0.0 - Cloudy 10 - - - -
26/08:00am 8.2 SSE 3 4 1012.2 - 0.0 - Cloudy 10 - - - -
26/07:30am 6.7 SSW 3 4 1012.2 - 0.0 - - 10 - - - -
26/07:00am 5.5 S 4 5 1012.2 - 0.0 - - 10 - - - -
26/06:30am 4.2 SSW 4 5 1012.1 - 0.0 - - 10 - - - -
26/06:00am 3.3 S 5 6 1011.7 - 0.0 - Mostly clear 10 - - - -
26/05:30am 3.6 S 4 5 1011.6 - 0.0 - - 10 - - - -
26/05:00am 5.2 CALM 0 0 1011.5 - 0.0 - - 10 - - - -

Other Formats:

Comma delimited format used in spreadsheet applications
http://www.bom.gov.au/fwo/IDT60701/IDT60701.95960.axf

JavaScript Object Notation format (JSON) in row-major order
http://www.bom.gov.au/fwo/IDT60701/IDT60701.95960.json